Time;durP1;ratioP1;P1;durP2;ratioP2;P2;SDS_P1;SDS_P2;PMS_P1;PMS_P2;Temp;Humidity;BMP_temperature;BMP_pressure;BME280_temperature;BME280_humidity;BME280_pressure;Samples;Min_cycle;Max_cycle;Signal;HPM_P1;HPM_P2
2023/07/29 00:01:31;;;;;;;4.33;3.30;;;16.40;99.90;;;;;;5020530;28;20211;-57
2023/07/29 00:03:57;;;;;;;6.70;3.70;;;16.40;99.90;;;;;;5023111;28;20518;-57
2023/07/29 00:06:23;;;;;;;4.03;3.63;;;16.40;99.90;;;;;;5030616;28;20521;-57
2023/07/29 00:08:49;;;;;;;4.97;3.53;;;16.40;99.90;;;;;;5025108;28;20645;-58
2023/07/29 00:11:14;;;;;;;4.20;3.80;;;16.40;99.90;;;;;;5020539;28;20560;-57
2023/07/29 00:13:40;;;;;;;6.10;3.67;;;16.40;99.90;;;;;;5015574;28;20184;-57
2023/07/29 00:16:06;;;;;;;8.03;3.57;;;16.40;99.90;;;;;;5018440;28;20185;-57
2023/07/29 00:18:32;;;;;;;8.50;4.03;;;16.30;99.90;;;;;;5023091;28;20707;-57
2023/07/29 00:20:58;;;;;;;5.27;3.77;;;16.30;99.90;;;;;;5016613;28;20192;-58
2023/07/29 00:23:23;;;;;;;7.27;4.27;;;16.30;99.90;;;;;;5028013;28;20427;-56
2023/07/29 00:25:49;;;;;;;5.70;4.20;;;16.20;99.90;;;;;;5021860;28;20767;-57
2023/07/29 00:28:14;;;;;;;24.70;5.17;;;16.20;99.90;;;;;;5021870;28;20653;-57
2023/07/29 00:30:40;;;;;;;12.20;5.03;;;16.20;99.90;;;;;;5022294;28;20700;-57
2023/07/29 00:33:06;;;;;;;9.60;5.03;;;16.20;99.90;;;;;;5022932;28;20199;-58
2023/07/29 00:35:31;;;;;;;18.20;4.60;;;16.20;99.90;;;;;;5020259;28;20703;-57
2023/07/29 00:37:57;;;;;;;15.33;4.40;;;16.20;99.90;;;;;;5022328;28;20730;-58
2023/07/29 00:40:23;;;;;;;5.90;4.20;;;16.20;99.90;;;;;;5018665;28;20211;-57
2023/07/29 00:42:50;;;;;;;10.13;5.47;;;16.10;99.90;;;;;;5027245;28;20183;-57
2023/07/29 00:45:16;;;;;;;13.30;4.77;;;16.10;99.90;;;;;;5023856;28;20188;-57
2023/07/29 00:47:43;;;;;;;16.30;5.20;;;16.10;99.90;;;;;;5016338;28;20438;-58
2023/07/29 00:50:11;;;;;;;14.57;5.00;;;16.20;99.90;;;;;;5013313;28;20250;-58
2023/07/29 00:52:36;;;;;;;35.30;5.50;;;16.10;99.90;;;;;;5018525;28;21742;-57
2023/07/29 00:55:03;;;;;;;11.13;4.67;;;16.10;99.90;;;;;;5023456;28;20460;-57
2023/07/29 00:57:29;;;;;;;8.73;4.30;;;16.10;99.90;;;;;;5026099;28;20539;-57
2023/07/29 00:59:55;;;;;;;6.73;4.90;;;16.10;99.90;;;;;;5020735;28;20442;-58
2023/07/29 01:02:21;;;;;;;8.90;4.83;;;16.10;99.90;;;;;;5023051;28;21130;-57
2023/07/29 01:04:55;;;;;;;9.87;4.67;;;16.10;99.90;;;;;;5020435;28;20541;-57
2023/07/29 01:07:33;;;;;;;10.27;4.60;;;16.10;99.90;;;;;;5027090;28;20223;-57
2023/07/29 01:10:03;;;;;;;23.57;5.23;;;16.10;99.90;;;;;;5018192;28;20474;-59
2023/07/29 01:13:01;;;;;;;28.93;4.70;;;16.10;99.90;;;;;;5021188;28;20426;-57
2023/07/29 01:15:39;;;;;;;14.53;4.20;;;16.10;99.90;;;;;;5019864;28;20448;-57
2023/07/29 01:18:10;;;;;;;12.80;3.97;;;16.00;99.90;;;;;;5019685;28;20993;-58
2023/07/29 01:20:40;;;;;;;16.40;3.93;;;16.00;99.90;;;;;;5021371;28;20517;-57
2023/07/29 01:23:06;;;;;;;26.83;4.07;;;16.00;99.90;;;;;;5018830;28;20517;-57
2023/07/29 01:25:31;;;;;;;17.40;4.87;;;16.00;99.90;;;;;;5019722;28;20502;-58
2023/07/29 01:27:58;;;;;;;13.63;4.60;;;16.00;99.90;;;;;;5023471;28;20171;-57
2023/07/29 01:30:30;;;;;;;33.40;5.20;;;16.00;99.90;;;;;;5024165;28;20199;-57
2023/07/29 01:33:03;;;;;;;26.43;4.80;;;16.00;99.90;;;;;;5021017;28;20478;-57
2023/07/29 01:35:36;;;;;;;7.43;3.80;;;15.90;99.90;;;;;;5026285;28;20414;-58
2023/07/29 01:38:28;;;;;;;29.67;4.77;;;15.90;99.90;;;;;;5013538;28;20438;-57
2023/07/29 01:40:54;;;;;;;46.70;4.40;;;15.90;99.90;;;;;;5017674;28;20470;-57
2023/07/29 01:43:23;;;;;;;20.03;4.43;;;15.80;99.90;;;;;;5021975;28;20431;-57
2023/07/29 01:45:49;;;;;;;36.03;4.60;;;15.80;99.90;;;;;;5017928;28;20677;-57
2023/07/29 01:48:14;;;;;;;8.80;3.77;;;15.80;99.90;;;;;;5015321;28;20434;-58
2023/07/29 01:50:40;;;;;;;41.30;5.20;;;15.80;99.90;;;;;;5023189;28;20274;-57
2023/07/29 01:53:06;;;;;;;12.53;4.63;;;15.80;99.90;;;;;;5023707;28;20180;-58
2023/07/29 01:55:31;;;;;;;16.53;4.13;;;15.80;99.90;;;;;;5020412;28;20173;-57
2023/07/29 01:57:58;;;;;;;25.37;4.60;;;15.80;99.90;;;;;;5022253;28;20263;-57
2023/07/29 02:00:23;;;;;;;29.63;4.27;;;15.80;99.90;;;;;;5016618;28;20195;-58
2023/07/29 02:02:49;;;;;;;13.83;4.70;;;15.80;99.90;;;;;;5014513;28;20441;-57
2023/07/29 02:05:15;;;;;;;78.87;6.60;;;15.80;99.90;;;;;;5026688;28;20229;-58
2023/07/29 02:07:40;;;;;;;83.27;6.03;;;15.80;99.90;;;;;;5024900;28;20190;-57
2023/07/29 02:10:06;;;;;;;40.47;3.90;;;15.70;99.90;;;;;;5017734;28;20203;-56
2023/07/29 02:12:32;;;;;;;20.13;3.90;;;15.70;99.90;;;;;;5018887;28;20668;-57
2023/07/29 02:14:58;;;;;;;51.50;4.97;;;15.60;99.90;;;;;;5027029;28;20422;-57
2023/07/29 02:17:23;;;;;;;34.97;4.33;;;15.60;99.90;;;;;;5027147;28;20784;-57
2023/07/29 02:19:49;;;;;;;35.40;4.67;;;15.60;99.90;;;;;;5020384;28;20228;-57
2023/07/29 02:22:16;;;;;;;44.63;4.43;;;15.60;99.90;;;;;;5017304;28;20175;-57
2023/07/29 02:24:42;;;;;;;10.67;3.67;;;15.60;99.90;;;;;;5022185;28;20841;-57
2023/07/29 02:27:07;;;;;;;53.37;4.10;;;15.60;99.90;;;;;;5024733;28;20422;-58
2023/07/29 02:29:33;;;;;;;18.20;4.00;;;15.60;99.90;;;;;;5017797;28;20211;-58
2023/07/29 02:32:00;;;;;;;36.27;4.03;;;15.60;99.90;;;;;;5016583;28;20181;-57
2023/07/29 02:34:25;;;;;;;34.23;4.07;;;15.60;99.90;;;;;;5020309;28;20682;-58
2023/07/29 02:36:51;;;;;;;20.97;3.47;;;15.60;99.90;;;;;;5022655;28;20450;-57
2023/07/29 02:39:16;;;;;;;38.77;3.93;;;15.60;99.90;;;;;;5023862;28;20680;-59
2023/07/29 02:41:42;;;;;;;35.27;4.60;;;15.60;99.90;;;;;;5015058;28;20172;-58
2023/07/29 02:44:08;;;;;;;24.83;3.87;;;15.60;99.90;;;;;;5022004;28;20176;-57
2023/07/29 02:46:33;;;;;;;31.33;4.77;;;15.60;99.90;;;;;;5016946;28;20584;-58
2023/07/29 02:48:59;;;;;;;20.03;3.87;;;15.60;99.90;;;;;;5021247;28;20172;-58
2023/07/29 02:51:24;;;;;;;25.90;3.97;;;15.60;99.90;;;;;;5021977;28;20204;-56
2023/07/29 02:53:50;;;;;;;20.53;3.43;;;15.60;99.90;;;;;;5020239;28;20168;-58
2023/07/29 02:56:16;;;;;;;34.97;3.97;;;15.60;99.90;;;;;;5016597;28;20592;-57
2023/07/29 02:58:41;;;;;;;27.57;5.10;;;15.60;99.90;;;;;;5019084;28;20226;-58
2023/07/29 03:01:07;;;;;;;17.03;4.00;;;15.60;99.90;;;;;;5018725;28;20210;-57
2023/07/29 03:03:33;;;;;;;19.13;4.33;;;15.60;99.90;;;;;;5013853;28;20172;-57
2023/07/29 03:06:03;;;;;;;24.40;3.40;;;15.60;99.90;;;;;;5020917;28;20633;-59
2023/07/29 03:08:29;;;;;;;27.33;4.10;;;15.60;99.90;;;;;;5021822;28;20176;-58
2023/07/29 03:10:55;;;;;;;26.07;4.10;;;15.50;99.90;;;;;;5021229;28;20466;-57
2023/07/29 03:13:21;;;;;;;38.13;4.90;;;15.50;99.90;;;;;;5026695;28;20229;-59
2023/07/29 03:15:47;;;;;;;40.20;4.93;;;15.50;99.90;;;;;;5017488;28;20435;-57
2023/07/29 03:18:12;;;;;;;26.07;4.60;;;15.50;99.90;;;;;;5018238;28;20238;-58
2023/07/29 03:20:38;;;;;;;44.83;5.97;;;15.50;99.90;;;;;;5022270;28;20278;-58
2023/07/29 03:23:03;;;;;;;15.07;4.13;;;15.50;99.90;;;;;;5026380;28;20581;-57
2023/07/29 03:25:29;;;;;;;17.10;5.07;;;15.50;99.90;;;;;;5024138;28;20172;-58
2023/07/29 03:27:55;;;;;;;23.37;3.73;;;15.50;99.90;;;;;;5014436;28;20199;-57
2023/07/29 03:30:21;;;;;;;22.30;4.27;;;15.50;99.90;;;;;;5017679;28;20281;-58
2023/07/29 03:32:48;;;;;;;48.70;5.13;;;15.50;99.90;;;;;;5026323;28;20609;-57
2023/07/29 03:35:14;;;;;;;22.10;3.50;;;15.50;99.90;;;;;;5017035;28;20445;-58
2023/07/29 03:37:40;;;;;;;21.13;4.90;;;15.50;99.90;;;;;;5016985;28;20427;-58
2023/07/29 03:40:07;;;;;;;38.20;4.30;;;15.50;99.90;;;;;;5027677;28;20274;-58
2023/07/29 03:42:32;;;;;;;7.23;3.90;;;15.50;99.90;;;;;;5027371;28;20258;-56
2023/07/29 03:44:58;;;;;;;35.00;4.30;;;15.50;99.90;;;;;;5025355;28;20525;-58
2023/07/29 03:47:24;;;;;;;25.57;4.60;;;15.50;99.90;;;;;;5021011;28;20219;-57
2023/07/29 03:49:50;;;;;;;6.23;4.00;;;15.50;99.90;;;;;;5020934;28;20196;-58
2023/07/29 03:52:15;;;;;;;23.13;4.37;;;15.50;99.90;;;;;;5029380;28;20175;-57
2023/07/29 03:54:41;;;;;;;10.83;4.43;;;15.50;99.90;;;;;;5024651;28;20688;-57
2023/07/29 03:57:06;;;;;;;13.83;4.27;;;15.50;99.90;;;;;;5029899;28;20175;-58
2023/07/29 03:59:32;;;;;;;27.57;4.80;;;15.50;99.90;;;;;;5028061;28;20278;-57
2023/07/29 04:01:58;;;;;;;6.30;3.90;;;15.50;99.90;;;;;;5016844;28;20179;-58
2023/07/29 04:04:23;;;;;;;24.53;4.93;;;15.50;99.90;;;;;;5025803;28;20656;-56
2023/07/29 04:06:49;;;;;;;13.23;4.60;;;15.50;99.90;;;;;;5029888;28;20164;-56
2023/07/29 04:09:14;;;;;;;11.27;4.10;;;15.50;99.90;;;;;;5015285;28;20712;-57
2023/07/29 04:11:40;;;;;;;13.40;4.10;;;15.50;99.90;;;;;;5021273;28;20183;-58
2023/07/29 04:14:06;;;;;;;16.57;4.00;;;15.50;99.90;;;;;;5020256;28;20172;-57
2023/07/29 04:16:31;;;;;;;6.07;3.67;;;15.50;99.90;;;;;;5025736;28;20171;-57
2023/07/29 04:18:57;;;;;;;5.47;3.53;;;15.50;99.90;;;;;;5028818;28;20195;-57
2023/07/29 04:21:22;;;;;;;11.20;4.40;;;15.50;99.90;;;;;;5020788;28;20176;-58
2023/07/29 04:23:48;;;;;;;5.87;3.50;;;15.50;99.90;;;;;;5014866;28;20748;-58
2023/07/29 04:26:13;;;;;;;11.57;4.00;;;15.50;99.90;;;;;;5019152;28;20183;-57
2023/07/29 04:28:39;;;;;;;5.50;4.40;;;15.50;99.90;;;;;;5024520;28;20180;-58
2023/07/29 04:31:05;;;;;;;8.47;3.80;;;15.50;99.90;;;;;;5026796;28;20586;-57
2023/07/29 04:33:33;;;;;;;7.10;4.30;;;15.50;99.90;;;;;;5014038;28;20177;-57
2023/07/29 04:35:59;;;;;;;13.83;4.70;;;15.50;99.90;;;;;;5014254;28;20169;-56
2023/07/29 04:38:31;;;;;;;4.00;3.60;;;15.60;99.90;;;;;;5020378;28;20465;-57
2023/07/29 04:40:57;;;;;;;7.50;3.67;;;15.60;99.90;;;;;;5022212;28;20192;-57
2023/07/29 04:43:22;;;;;;;6.70;4.00;;;15.60;99.90;;;;;;5027463;28;20422;-58
2023/07/29 04:45:48;;;;;;;3.60;3.30;;;15.60;99.90;;;;;;5026674;28;20184;-58
2023/07/29 04:48:13;;;;;;;4.27;3.60;;;15.60;99.90;;;;;;5020803;28;20189;-56
2023/07/29 04:50:39;;;;;;;6.37;3.60;;;15.70;99.90;;;;;;5022392;28;20841;-58
2023/07/29 04:53:05;;;;;;;3.73;3.37;;;15.70;99.90;;;;;;5028029;28;20179;-58
2023/07/29 04:55:31;;;;;;;4.27;3.40;;;15.70;99.90;;;;;;5018345;28;20250;-57
2023/07/29 04:57:56;;;;;;;4.27;3.87;;;15.70;99.90;;;;;;5016142;28;20179;-58
2023/07/29 05:00:22;;;;;;;4.20;3.77;;;15.80;99.90;;;;;;5019752;28;20744;-57
2023/07/29 05:02:47;;;;;;;4.73;4.33;;;15.80;99.90;;;;;;5025960;28;20182;-58
2023/07/29 05:05:13;;;;;;;4.10;3.00;;;15.80;99.90;;;;;;5020687;28;20719;-57
2023/07/29 05:07:38;;;;;;;5.00;4.27;;;15.80;99.90;;;;;;5016705;28;20198;-57
2023/07/29 05:10:05;;;;;;;4.73;4.00;;;15.90;99.90;;;;;;5018390;28;20610;-58
2023/07/29 05:12:32;;;;;;;4.57;3.73;;;15.90;99.90;;;;;;5020788;28;20196;-58
2023/07/29 05:14:58;;;;;;;4.33;3.40;;;15.90;99.90;;;;;;5027491;28;20848;-58
2023/07/29 05:17:23;;;;;;;6.33;3.87;;;15.90;99.90;;;;;;5018012;28;20934;-57
2023/07/29 05:19:49;;;;;;;7.90;4.73;;;15.90;99.90;;;;;;5021003;28;20223;-56
2023/07/29 05:22:15;;;;;;;8.23;3.97;;;15.90;99.90;;;;;;5019558;28;20184;-58
2023/07/29 05:24:40;;;;;;;5.87;3.87;;;15.80;99.90;;;;;;5025176;28;20241;-58
2023/07/29 05:27:08;;;;;;;7.10;4.80;;;15.80;99.90;;;;;;5025954;28;20188;-58
2023/07/29 05:29:33;;;;;;;5.47;4.20;;;15.80;99.90;;;;;;5015431;28;20235;-58
2023/07/29 05:31:59;;;;;;;4.63;4.03;;;15.80;99.90;;;;;;5016465;28;20451;-57
2023/07/29 05:34:25;;;;;;;4.50;3.70;;;15.90;99.90;;;;;;5021545;28;20326;-58
2023/07/29 05:36:50;;;;;;;4.53;4.10;;;16.00;99.90;;;;;;5021823;28;20179;-58
2023/07/29 05:39:16;;;;;;;5.50;4.20;;;16.00;99.90;;;;;;5026088;28;20715;-58
2023/07/29 05:41:42;;;;;;;4.27;3.87;;;16.10;99.90;;;;;;5014877;28;20181;-57
2023/07/29 05:44:07;;;;;;;6.60;3.00;;;16.10;99.90;;;;;;5015628;28;20783;-58
2023/07/29 05:46:33;;;;;;;4.80;3.60;;;16.20;99.90;;;;;;5024002;28;20180;-57
2023/07/29 05:48:58;;;;;;;4.30;3.90;;;16.30;99.90;;;;;;5025209;28;20783;-57
2023/07/29 05:51:24;;;;;;;6.57;3.67;;;16.40;99.90;;;;;;5020187;28;20306;-57
2023/07/29 05:53:49;;;;;;;5.93;4.67;;;16.50;99.90;;;;;;5017481;28;20211;-59
2023/07/29 05:56:15;;;;;;;7.93;3.53;;;16.50;99.90;;;;;;5019312;28;20633;-58
2023/07/29 05:58:41;;;;;;;4.53;3.60;;;16.60;99.90;;;;;;5022317;28;20172;-57
2023/07/29 06:01:06;;;;;;;3.47;3.17;;;16.70;99.90;;;;;;5023425;28;20287;-59
2023/07/29 06:03:32;;;;;;;6.37;4.60;;;16.80;99.90;;;;;;5018125;28;20432;-58
2023/07/29 06:05:57;;;;;;;5.53;3.60;;;16.90;99.90;;;;;;5014865;28;20212;-58
2023/07/29 06:08:23;;;;;;;7.00;4.60;;;17.00;99.90;;;;;;5021746;28;20747;-58
2023/07/29 06:10:49;;;;;;;6.57;4.80;;;17.10;99.90;;;;;;5021136;28;20755;-58
2023/07/29 06:13:14;;;;;;;5.60;4.10;;;17.20;99.90;;;;;;5021876;28;20179;-58
2023/07/29 06:15:40;;;;;;;7.83;5.07;;;17.30;99.90;;;;;;5019853;28;20172;-58
2023/07/29 06:18:05;;;;;;;5.30;4.57;;;17.30;99.90;;;;;;5016482;28;20264;-57
2023/07/29 06:20:31;;;;;;;6.20;4.53;;;17.30;99.90;;;;;;5024722;28;20631;-58
2023/07/29 06:22:57;;;;;;;7.83;5.63;;;17.50;99.90;;;;;;5023721;28;20168;-58
2023/07/29 06:25:22;;;;;;;7.60;5.20;;;17.60;99.90;;;;;;5014197;28;20267;-57
2023/07/29 06:27:48;;;;;;;7.30;5.00;;;17.70;99.90;;;;;;5025598;28;20183;-58
2023/07/29 06:30:13;;;;;;;7.07;5.63;;;17.90;99.90;;;;;;5015851;28;20203;-58
2023/07/29 06:32:39;;;;;;;13.73;5.90;;;18.10;99.90;;;;;;5022490;28;20682;-57
2023/07/29 06:35:05;;;;;;;6.47;5.00;;;18.20;99.90;;;;;;5021369;28;20176;-59
2023/07/29 06:37:31;;;;;;;7.50;5.27;;;18.30;99.90;;;;;;5014673;28;20175;-59
2023/07/29 06:39:56;;;;;;;7.77;5.00;;;18.50;99.90;;;;;;5010371;28;20484;-57
2023/07/29 06:42:22;;;;;;;8.17;5.93;;;18.70;99.90;;;;;;5022261;28;20171;-58
2023/07/29 06:44:47;;;;;;;8.10;5.47;;;18.80;99.90;;;;;;5019370;28;20649;-58
2023/07/29 06:47:13;;;;;;;6.10;4.67;;;18.90;99.90;;;;;;5015001;28;20188;-58
2023/07/29 06:49:38;;;;;;;11.17;5.07;;;19.00;99.90;;;;;;5016318;28;20195;-58
2023/07/29 06:52:04;;;;;;;7.13;4.60;;;19.00;99.90;;;;;;5015396;28;20270;-57
2023/07/29 06:54:30;;;;;;;8.70;5.07;;;19.00;99.90;;;;;;5014713;28;20176;-58
2023/07/29 06:56:55;;;;;;;16.50;5.23;;;19.00;99.90;;;;;;5016983;28;20172;-58
2023/07/29 06:59:21;;;;;;;8.43;4.83;;;19.00;99.90;;;;;;5017076;28;20240;-57
2023/07/29 07:01:47;;;;;;;8.87;4.40;;;19.00;99.90;;;;;;5008647;28;20639;-58
2023/07/29 07:04:12;;;;;;;5.93;4.77;;;19.10;99.90;;;;;;5013211;28;20709;-59
2023/07/29 07:06:38;;;;;;;5.27;4.40;;;19.10;99.90;;;;;;5017396;28;20177;-58
2023/07/29 07:09:04;;;;;;;6.43;4.40;;;19.10;99.90;;;;;;5016992;28;20297;-59
2023/07/29 07:11:29;;;;;;;7.70;4.33;;;19.20;99.90;;;;;;5019153;28;20236;-59
2023/07/29 07:13:55;;;;;;;4.77;3.90;;;19.30;99.90;;;;;;5018487;28;20203;-59
2023/07/29 07:16:20;;;;;;;7.10;3.90;;;19.40;99.90;;;;;;5016642;28;20255;-58
2023/07/29 07:18:46;;;;;;;5.50;4.77;;;19.40;99.90;;;;;;5016020;28;20231;-58
2023/07/29 07:21:11;;;;;;;6.00;4.40;;;19.50;99.90;;;;;;5020652;28;20282;-57
2023/07/29 07:23:39;;;;;;;4.90;4.20;;;19.50;99.90;;;;;;5028591;28;20172;-58
2023/07/29 07:26:04;;;;;;;5.37;4.40;;;19.50;99.90;;;;;;5027558;28;20195;-59
2023/07/29 07:28:30;;;;;;;4.93;3.73;;;19.50;99.90;;;;;;5025700;28;20430;-59
2023/07/29 07:30:55;;;;;;;6.77;4.70;;;19.60;99.90;;;;;;5017379;28;20289;-58
2023/07/29 07:33:22;;;;;;;6.57;4.47;;;19.70;99.90;;;;;;5019174;28;20183;-58
2023/07/29 07:35:47;;;;;;;5.90;4.40;;;19.70;99.90;;;;;;5025229;28;20180;-59
2023/07/29 07:38:13;;;;;;;5.40;4.30;;;19.70;99.90;;;;;;5018712;28;20439;-58
2023/07/29 07:40:38;;;;;;;6.40;4.23;;;19.80;99.90;;;;;;5019880;28;20701;-59
2023/07/29 07:43:04;;;;;;;6.30;3.73;;;19.90;99.90;;;;;;5025069;28;20186;-59
2023/07/29 07:45:31;;;;;;;7.10;4.83;;;20.10;99.90;;;;;;5023138;28;20174;-58
2023/07/29 07:47:57;;;;;;;4.70;3.80;;;20.20;99.90;;;;;;5026010;28;20187;-58
2023/07/29 07:50:23;;;;;;;4.60;3.60;;;20.30;99.90;;;;;;5015487;28;20463;-58
2023/07/29 07:52:49;;;;;;;5.07;3.80;;;20.30;99.90;;;;;;5021148;28;20168;-57
2023/07/29 07:55:15;;;;;;;5.30;3.70;;;20.20;99.90;;;;;;5022644;28;20433;-57
2023/07/29 07:57:41;;;;;;;6.70;3.90;;;20.20;99.90;;;;;;5017153;28;20188;-58
2023/07/29 08:00:07;;;;;;;7.23;4.60;;;20.10;99.90;;;;;;5020675;28;21588;-58
2023/07/29 08:02:32;;;;;;;5.57;4.40;;;20.00;99.90;;;;;;5012960;28;20180;-60
2023/07/29 08:04:58;;;;;;;5.03;4.20;;;19.90;99.90;;;;;;5015756;28;20430;-58
2023/07/29 08:07:23;;;;;;;8.10;4.93;;;19.80;99.90;;;;;;5017969;28;20267;-58
2023/07/29 08:09:49;;;;;;;14.20;6.17;;;19.70;99.90;;;;;;5014977;28;20200;-58
2023/07/29 08:12:15;;;;;;;5.53;3.53;;;19.60;99.90;;;;;;5022520;28;20255;-58
2023/07/29 08:14:40;;;;;;;6.67;4.23;;;19.50;99.90;;;;;;5020122;28;20766;-58
2023/07/29 08:17:06;;;;;;;7.13;3.93;;;19.40;99.90;;;;;;5023184;28;20203;-58
2023/07/29 08:19:32;;;;;;;6.20;3.87;;;19.30;99.90;;;;;;5015437;28;20196;-59
2023/07/29 08:21:58;;;;;;;8.30;4.40;;;19.30;99.90;;;;;;5023541;28;20177;-58
2023/07/29 08:24:24;;;;;;;6.13;4.23;;;19.30;99.90;;;;;;5026610;28;20263;-58
2023/07/29 08:26:49;;;;;;;5.40;3.80;;;19.40;99.90;;;;;;5028228;28;20505;-59
2023/07/29 08:29:15;;;;;;;5.93;3.10;;;19.40;99.90;;;;;;5015440;28;20164;-57
2023/07/29 08:31:40;;;;;;;6.23;3.43;;;19.50;99.90;;;;;;5012710;28;20200;-57
2023/07/29 08:34:06;;;;;;;5.57;3.00;;;19.60;99.90;;;;;;5027756;28;20168;-56
2023/07/29 08:36:32;;;;;;;4.40;3.70;;;19.70;99.90;;;;;;5025011;28;20234;-58
2023/07/29 08:38:58;;;;;;;7.97;3.20;;;19.80;99.90;;;;;;5024542;28;20438;-58
2023/07/29 08:41:29;;;;;;;6.40;3.60;;;19.80;99.90;;;;;;5017117;28;20259;-58
2023/07/29 08:44:12;;;;;;;3.87;3.47;;;19.90;99.90;;;;;;5016449;28;20200;-59
2023/07/29 08:46:39;;;;;;;4.10;3.50;;;20.00;99.90;;;;;;5022012;28;21018;-58
2023/07/29 08:49:05;;;;;;;3.90;3.27;;;20.10;99.90;;;;;;5021109;28;20980;-59
2023/07/29 08:51:32;;;;;;;6.43;3.80;;;20.10;99.90;;;;;;5022949;28;20455;-58
2023/07/29 08:53:59;;;;;;;4.13;3.50;;;20.20;99.90;;;;;;5017832;28;20434;-58
2023/07/29 08:56:25;;;;;;;3.47;3.17;;;20.30;99.90;;;;;;5020435;28;20431;-58
2023/07/29 08:58:52;;;;;;;4.47;3.50;;;20.30;99.90;;;;;;5019727;28;20432;-58
2023/07/29 09:01:17;;;;;;;4.90;4.10;;;20.40;99.90;;;;;;5026336;28;20565;-58
2023/07/29 09:03:43;;;;;;;5.17;4.00;;;20.40;99.90;;;;;;5013616;28;20480;-58
2023/07/29 09:06:09;;;;;;;6.87;3.90;;;20.40;99.90;;;;;;5023765;28;20644;-59
2023/07/29 09:08:34;;;;;;;4.67;3.90;;;20.30;99.90;;;;;;5028205;28;20218;-57
2023/07/29 09:11:01;;;;;;;5.53;4.30;;;20.30;99.90;;;;;;5021242;28;20781;-57
2023/07/29 09:13:27;;;;;;;4.93;4.17;;;20.30;99.90;;;;;;5023630;28;20187;-59
2023/07/29 09:15:57;;;;;;;4.17;3.77;;;20.30;99.90;;;;;;5017482;28;20896;-58
2023/07/29 09:18:25;;;;;;;5.07;3.80;;;20.40;99.90;;;;;;5022067;28;20179;-58
2023/07/29 09:20:51;;;;;;;3.80;3.43;;;20.40;99.90;;;;;;5018510;28;20954;-58
2023/07/29 09:23:16;;;;;;;6.93;4.13;;;20.50;99.90;;;;;;5024888;28;20418;-58
2023/07/29 09:25:42;;;;;;;5.53;3.77;;;20.40;99.90;;;;;;5012025;28;20172;-58
2023/07/29 09:28:13;;;;;;;6.67;3.80;;;20.50;99.90;;;;;;5016112;28;20177;-58
2023/07/29 09:30:40;;;;;;;4.90;3.70;;;20.60;99.90;;;;;;5020575;28;20824;-57
2023/07/29 09:33:06;;;;;;;12.60;3.50;;;20.60;99.90;;;;;;5018971;28;20812;-57
2023/07/29 09:35:34;;;;;;;4.00;3.60;;;20.70;99.90;;;;;;5025864;28;20466;-58
2023/07/29 09:38:00;;;;;;;4.23;3.10;;;20.90;99.90;;;;;;5014180;28;20431;-57
2023/07/29 09:40:25;;;;;;;3.60;3.10;;;21.00;99.90;;;;;;5023926;28;20454;-57
2023/07/29 09:42:53;;;;;;;3.70;3.30;;;21.10;99.90;;;;;;5025776;28;20183;-56
2023/07/29 09:45:23;;;;;;;6.20;3.70;;;21.20;99.90;;;;;;5021641;28;20188;-57
2023/07/29 09:47:50;;;;;;;5.10;3.50;;;21.40;99.90;;;;;;5013483;28;20477;-57
2023/07/29 09:50:16;;;;;;;4.20;3.00;;;21.60;99.90;;;;;;5016249;28;21252;-57
2023/07/29 09:52:42;;;;;;;5.07;3.57;;;21.70;99.90;;;;;;5025971;28;20425;-58
2023/07/29 09:55:13;;;;;;;4.50;3.50;;;21.80;99.90;;;;;;5020428;28;20443;-57
2023/07/29 09:57:40;;;;;;;4.97;3.27;;;21.70;99.90;;;;;;5021519;28;20808;-58
2023/07/29 10:00:11;;;;;;;3.03;2.70;;;21.60;99.90;;;;;;5010240;28;20443;-57
2023/07/29 10:02:43;;;;;;;9.83;2.90;;;21.50;99.90;;;;;;5021291;28;20735;-58
2023/07/29 10:05:10;;;;;;;3.93;3.50;;;21.40;99.90;;;;;;5023364;28;20458;-57
2023/07/29 10:07:37;;;;;;;3.90;3.17;;;21.40;99.90;;;;;;5020189;28;20514;-57
2023/07/29 10:10:04;;;;;;;4.90;3.27;;;21.50;99.90;;;;;;5013155;28;20475;-57
2023/07/29 10:12:34;;;;;;;5.77;3.00;;;21.60;99.90;;;;;;5014530;28;20423;-57
2023/07/29 10:15:06;;;;;;;5.27;3.20;;;21.70;99.90;;;;;;5018389;28;20418;-57
2023/07/29 10:17:36;;;;;;;3.90;3.10;;;21.80;99.90;;;;;;5018037;28;20422;-57
2023/07/29 10:20:03;;;;;;;5.73;3.33;;;22.00;99.90;;;;;;5020249;28;20443;-58
2023/07/29 10:22:38;;;;;;;3.20;2.87;;;22.10;99.90;;;;;;5022183;28;20434;-58
2023/07/29 10:25:24;;;;;;;2.80;2.50;;;22.30;99.90;;;;;;5017038;28;20510;-58
2023/07/29 10:27:57;;;;;;;2.87;2.63;;;22.30;99.90;;;;;;5024024;28;20513;-57
2023/07/29 10:30:24;;;;;;;3.37;2.73;;;22.30;99.90;;;;;;5020589;28;20518;-59
2023/07/29 10:32:52;;;;;;;4.40;3.43;;;22.30;99.90;;;;;;5014373;28;20868;-58
2023/07/29 10:35:18;;;;;;;3.30;3.00;;;22.40;99.90;;;;;;5023254;28;20434;-58
2023/07/29 10:37:45;;;;;;;3.83;2.80;;;22.50;99.90;;;;;;5023444;28;20902;-59
2023/07/29 10:40:11;;;;;;;3.37;2.60;;;22.60;99.90;;;;;;5016251;28;20207;-59
2023/07/29 10:42:38;;;;;;;4.20;3.37;;;22.70;99.90;;;;;;5011365;28;20419;-57
2023/07/29 10:45:20;;;;;;;6.70;2.80;;;22.80;99.90;;;;;;5011996;28;20934;-58
2023/07/29 10:47:47;;;;;;;6.50;3.50;;;22.90;99.90;;;;;;5013277;28;20462;-58
2023/07/29 10:50:20;;;;;;;4.17;3.00;;;23.00;99.90;;;;;;5023173;28;20462;-58
2023/07/29 10:52:52;;;;;;;4.83;3.07;;;23.20;96.00;;;;;;5009587;28;20600;-58
2023/07/29 10:55:26;;;;;;;2.80;2.60;;;23.20;93.30;;;;;;5021847;28;20422;-58
2023/07/29 10:57:51;;;;;;;4.23;2.97;;;23.30;91.60;;;;;;5015633;28;20427;-58
2023/07/29 11:00:20;;;;;;;3.50;2.60;;;23.20;83.80;;;;;;5022652;28;20469;-58
2023/07/29 11:02:59;;;;;;;2.70;2.20;;;23.30;80.70;;;;;;5012567;28;20208;-59
2023/07/29 11:05:25;;;;;;;3.57;2.80;;;23.50;79.10;;;;;;5012053;28;20439;-58
2023/07/29 11:07:51;;;;;;;5.80;2.57;;;23.60;83.30;;;;;;5019807;28;20439;-57
2023/07/29 11:10:17;;;;;;;3.80;3.17;;;23.90;90.90;;;;;;5022776;28;20219;-59
2023/07/29 11:12:45;;;;;;;3.53;2.70;;;24.20;81.10;;;;;;5020235;28;20168;-58
2023/07/29 11:15:11;;;;;;;4.80;2.60;;;24.40;73.60;;;;;;5018238;28;20915;-57
2023/07/29 11:17:43;;;;;;;3.07;2.67;;;24.50;63.60;;;;;;5016426;28;20442;-58
2023/07/29 11:20:09;;;;;;;3.13;2.47;;;24.40;62.40;;;;;;5021339;28;20200;-58
2023/07/29 11:22:36;;;;;;;3.03;2.73;;;24.40;64.80;;;;;;5016224;28;20500;-59
2023/07/29 11:25:02;;;;;;;2.73;2.27;;;24.50;62.50;;;;;;5025488;28;20930;-58
2023/07/29 11:27:28;;;;;;;2.50;2.23;;;24.70;62.20;;;;;;5019722;28;20446;-59
2023/07/29 11:29:58;;;;;;;3.30;2.20;;;24.90;60.00;;;;;;5013293;28;21014;-58
2023/07/29 11:32:25;;;;;;;4.87;2.70;;;25.00;52.70;;;;;;5017262;28;20191;-58
2023/07/29 11:34:50;;;;;;;2.10;1.90;;;24.90;54.10;;;;;;5020853;28;20524;-58
2023/07/29 11:37:16;;;;;;;3.23;2.40;;;24.90;54.60;;;;;;5019388;28;20526;-58
2023/07/29 11:39:42;;;;;;;2.40;2.20;;;24.90;54.50;;;;;;5009910;28;20210;-58
2023/07/29 11:42:12;;;;;;;2.37;2.17;;;24.80;55.70;;;;;;5017896;28;20222;-57
2023/07/29 11:44:38;;;;;;;2.80;2.13;;;24.80;54.50;;;;;;5020333;28;20414;-57
2023/07/29 11:47:07;;;;;;;2.80;2.47;;;24.80;54.70;;;;;;5024068;28;20421;-59
2023/07/29 11:49:34;;;;;;;2.75;2.50;;;24.90;55.50;;;;;;5016125;28;20210;-59
2023/07/29 11:52:00;;;;;;;3.97;2.60;;;25.10;53.90;;;;;;5024299;28;20573;-59
2023/07/29 11:54:26;;;;;;;2.03;1.93;;;25.10;52.50;;;;;;5018065;28;20430;-59
2023/07/29 11:56:52;;;;;;;2.47;2.20;;;25.10;53.20;;;;;;5023841;28;20434;-57
2023/07/29 11:59:18;;;;;;;1.90;1.67;;;25.20;53.40;;;;;;5016257;28;20180;-58
2023/07/29 12:01:43;;;;;;;2.10;2.00;;;25.20;54.00;;;;;;5016681;28;20853;-58
2023/07/29 12:04:09;;;;;;;4.23;1.80;;;25.30;54.70;;;;;;5021054;28;20195;-59
2023/07/29 12:06:35;;;;;;;2.40;2.00;;;25.40;54.40;;;;;;5023209;28;20199;-58
2023/07/29 12:09:01;;;;;;;5.60;2.03;;;25.40;54.70;;;;;;5019008;28;20438;-59
2023/07/29 12:11:27;;;;;;;2.10;1.90;;;25.50;52.70;;;;;;5022191;28;20458;-58
2023/07/29 12:13:56;;;;;;;2.63;2.23;;;25.60;52.00;;;;;;5016045;28;20179;-57
2023/07/29 12:16:21;;;;;;;6.80;2.30;;;25.60;53.40;;;;;;5024847;28;20191;-59
2023/07/29 12:18:49;;;;;;;2.10;1.87;;;25.90;53.40;;;;;;5024485;28;20426;-57
2023/07/29 12:21:15;;;;;;;2.23;1.90;;;25.90;52.90;;;;;;5026421;28;20203;-57
2023/07/29 12:23:40;;;;;;;2.13;1.93;;;25.90;52.60;;;;;;5022340;28;20437;-58
2023/07/29 12:26:06;;;;;;;6.70;1.83;;;25.80;52.30;;;;;;5017259;28;20400;-58
2023/07/29 12:28:32;;;;;;;3.17;2.20;;;25.80;53.00;;;;;;5020431;28;20179;-56
2023/07/29 12:30:59;;;;;;;2.30;2.10;;;25.80;52.90;;;;;;5023572;28;20287;-58
2023/07/29 12:33:36;;;;;;;2.90;2.20;;;25.70;52.10;;;;;;5021331;28;20172;-58
2023/07/29 12:36:02;;;;;;;2.50;2.03;;;25.50;51.50;;;;;;5015018;28;20446;-58
2023/07/29 12:38:29;;;;;;;2.17;1.73;;;25.30;51.70;;;;;;5019527;28;20461;-58
2023/07/29 12:40:55;;;;;;;2.87;2.10;;;25.20;52.20;;;;;;5014056;28;20490;-60